sensor_id;sensor_type;location;lat;lon;timestamp;pressure;altitude;pressure_sealevel;temperature;humidity
59367;BME280;45163;47.690;11.770;2022-08-01T00:00:45;93491.75;;;16.37;100.00
59367;BME280;45163;47.690;11.770;2022-08-01T00:03:11;93486.72;;;16.36;100.00
59367;BME280;45163;47.690;11.770;2022-08-01T00:05:37;93490.22;;;16.36;100.00
59367;BME280;45163;47.690;11.770;2022-08-01T00:08:04;93491.34;;;16.30;100.00
59367;BME280;45163;47.690;11.770;2022-08-01T00:10:30;93483.53;;;16.28;100.00
59367;BME280;45163;47.690;11.770;2022-08-01T00:12:56;93482.47;;;16.26;100.00
59367;BME280;45163;47.690;11.770;2022-08-01T00:15:22;93476.34;;;16.31;100.00
59367;BME280;45163;47.690;11.770;2022-08-01T00:17:47;93475.88;;;16.32;100.00
59367;BME280;45163;47.690;11.770;2022-08-01T00:20:15;93479.56;;;16.29;100.00
59367;BME280;45163;47.690;11.770;2022-08-01T00:22:41;93480.50;;;16.26;100.00
59367;BME280;45163;47.690;11.770;2022-08-01T00:25:08;93473.81;;;16.18;100.00
59367;BME280;45163;47.690;11.770;2022-08-01T00:27:34;93473.84;;;16.09;100.00
59367;BME280;45163;47.690;11.770;2022-08-01T00:30:00;93480.63;;;15.99;100.00
59367;BME280;45163;47.690;11.770;2022-08-01T00:32:26;93479.84;;;15.98;100.00
59367;BME280;45163;47.690;11.770;2022-08-01T00:34:52;93478.59;;;16.08;100.00
59367;BME280;45163;47.690;11.770;2022-08-01T00:37:18;93472.44;;;16.13;100.00
59367;BME280;45163;47.690;11.770;2022-08-01T00:39:44;93483.13;;;16.21;100.00
59367;BME280;45163;47.690;11.770;2022-08-01T00:42:12;93478.38;;;16.21;100.00
59367;BME280;45163;47.690;11.770;2022-08-01T00:44:39;93476.69;;;16.24;100.00
59367;BME280;45163;47.690;11.770;2022-08-01T00:47:06;93470.09;;;16.21;100.00
59367;BME280;45163;47.690;11.770;2022-08-01T00:49:32;93471.22;;;16.38;100.00
59367;BME280;45163;47.690;11.770;2022-08-01T00:51:58;93466.91;;;16.47;100.00
59367;BME280;45163;47.690;11.770;2022-08-01T00:54:25;93458.78;;;16.52;100.00
59367;BME280;45163;47.690;11.770;2022-08-01T00:56:52;93461.63;;;16.58;100.00
59367;BME280;45163;47.690;11.770;2022-08-01T00:59:21;93470.22;;;16.60;100.00
59367;BME280;45163;47.690;11.770;2022-08-01T01:01:47;93469.44;;;16.59;100.00
59367;BME280;45163;47.690;11.770;2022-08-01T01:04:13;93483.44;;;16.47;100.00
59367;BME280;45163;47.690;11.770;2022-08-01T01:07:00;93486.59;;;16.30;100.00
59367;BME280;45163;47.690;11.770;2022-08-01T01:09:52;93500.56;;;16.17;100.00
59367;BME280;45163;47.690;11.770;2022-08-01T01:12:29;93496.66;;;16.09;100.00
59367;BME280;45163;47.690;11.770;2022-08-01T01:18:33;93504.47;;;15.92;100.00
59367;BME280;45163;47.690;11.770;2022-08-01T01:21:09;93506.66;;;15.88;100.00
59367;BME280;45163;47.690;11.770;2022-08-01T01:23:46;93497.94;;;15.90;100.00
59367;BME280;45163;47.690;11.770;2022-08-01T01:29:30;93515.41;;;15.78;100.00
59367;BME280;45163;47.690;11.770;2022-08-01T01:32:04;93513.09;;;15.85;100.00
59367;BME280;45163;47.690;11.770;2022-08-01T01:34:34;93518.44;;;15.89;100.00
59367;BME280;45163;47.690;11.770;2022-08-01T01:37:03;93513.69;;;15.89;100.00
59367;BME280;45163;47.690;11.770;2022-08-01T01:39:32;93519.19;;;15.89;100.00
59367;BME280;45163;47.690;11.770;2022-08-01T01:42:02;93515.50;;;16.02;100.00
59367;BME280;45163;47.690;11.770;2022-08-01T01:44:30;93510.28;;;16.04;100.00
59367;BME280;45163;47.690;11.770;2022-08-01T01:46:58;93512.25;;;16.03;100.00
59367;BME280;45163;47.690;11.770;2022-08-01T01:49:26;93515.00;;;16.03;100.00
59367;BME280;45163;47.690;11.770;2022-08-01T01:51:54;93512.75;;;15.92;100.00
59367;BME280;45163;47.690;11.770;2022-08-01T01:54:23;93513.25;;;15.82;100.00
59367;BME280;45163;47.690;11.770;2022-08-01T01:56:50;93515.69;;;15.80;100.00
59367;BME280;45163;47.690;11.770;2022-08-01T01:59:20;93520.00;;;15.72;100.00
59367;BME280;45163;47.690;11.770;2022-08-01T02:01:49;93515.88;;;15.76;100.00
59367;BME280;45163;47.690;11.770;2022-08-01T02:04:17;93512.97;;;15.71;100.00
59367;BME280;45163;47.690;11.770;2022-08-01T02:06:46;93518.94;;;15.69;100.00
59367;BME280;45163;47.690;11.770;2022-08-01T02:09:21;93521.09;;;15.65;100.00
59367;BME280;45163;47.690;11.770;2022-08-01T02:11:49;93522.28;;;15.64;100.00
59367;BME280;45163;47.690;11.770;2022-08-01T02:14:18;93521.97;;;15.62;100.00
59367;BME280;45163;47.690;11.770;2022-08-01T02:16:47;93522.28;;;15.55;100.00
59367;BME280;45163;47.690;11.770;2022-08-01T02:19:15;93527.34;;;15.56;100.00
59367;BME280;45163;47.690;11.770;2022-08-01T02:21:56;93524.16;;;15.49;100.00
59367;BME280;45163;47.690;11.770;2022-08-01T02:24:36;93533.78;;;15.44;100.00
59367;BME280;45163;47.690;11.770;2022-08-01T02:27:10;93526.56;;;15.47;100.00
59367;BME280;45163;47.690;11.770;2022-08-01T02:29:41;93521.41;;;15.49;100.00
59367;BME280;45163;47.690;11.770;2022-08-01T02:32:12;93531.50;;;15.42;100.00
59367;BME280;45163;47.690;11.770;2022-08-01T02:34:41;93526.75;;;15.43;100.00
59367;BME280;45163;47.690;11.770;2022-08-01T02:37:09;93526.16;;;15.39;100.00
59367;BME280;45163;47.690;11.770;2022-08-01T02:39:36;93524.78;;;15.43;100.00
59367;BME280;45163;47.690;11.770;2022-08-01T02:42:06;93531.16;;;15.50;100.00
59367;BME280;45163;47.690;11.770;2022-08-01T02:44:37;93527.50;;;15.53;100.00
59367;BME280;45163;47.690;11.770;2022-08-01T02:47:04;93518.78;;;15.63;100.00
59367;BME280;45163;47.690;11.770;2022-08-01T02:49:33;93518.00;;;15.63;100.00
59367;BME280;45163;47.690;11.770;2022-08-01T02:52:05;93524.59;;;15.56;100.00
59367;BME280;45163;47.690;11.770;2022-08-01T02:54:33;93519.41;;;15.49;100.00
59367;BME280;45163;47.690;11.770;2022-08-01T02:57:00;93530.28;;;15.43;100.00
59367;BME280;45163;47.690;11.770;2022-08-01T02:59:29;93521.09;;;15.37;100.00
59367;BME280;45163;47.690;11.770;2022-08-01T03:01:56;93534.22;;;15.33;100.00
59367;BME280;45163;47.690;11.770;2022-08-01T03:04:24;93522.19;;;15.31;100.00
59367;BME280;45163;47.690;11.770;2022-08-01T03:06:52;93533.94;;;15.31;100.00
59367;BME280;45163;47.690;11.770;2022-08-01T03:09:20;93534.22;;;15.33;100.00
59367;BME280;45163;47.690;11.770;2022-08-01T03:11:48;93534.84;;;15.37;100.00
59367;BME280;45163;47.690;11.770;2022-08-01T03:14:15;93536.69;;;15.31;100.00
59367;BME280;45163;47.690;11.770;2022-08-01T03:16:44;93533.94;;;15.31;100.00
59367;BME280;45163;47.690;11.770;2022-08-01T03:19:12;93536.69;;;15.31;100.00
59367;BME280;45163;47.690;11.770;2022-08-01T03:21:40;93537.91;;;15.30;100.00
59367;BME280;45163;47.690;11.770;2022-08-01T03:24:10;93542.50;;;15.24;100.00
59367;BME280;45163;47.690;11.770;2022-08-01T03:26:38;93539.88;;;15.20;100.00
59367;BME280;45163;47.690;11.770;2022-08-01T03:29:06;93544.34;;;15.18;100.00
59367;BME280;45163;47.690;11.770;2022-08-01T03:31:35;93549.38;;;15.19;100.00
59367;BME280;45163;47.690;11.770;2022-08-01T03:34:02;93552.41;;;15.12;100.00
59367;BME280;45163;47.690;11.770;2022-08-01T03:36:28;93546.63;;;15.10;100.00
59367;BME280;45163;47.690;11.770;2022-08-01T03:38:58;93551.81;;;15.08;100.00
59367;BME280;45163;47.690;11.770;2022-08-01T03:41:27;93559.00;;;15.06;100.00
59367;BME280;45163;47.690;11.770;2022-08-01T03:44:01;93552.88;;;15.02;100.00
59367;BME280;45163;47.690;11.770;2022-08-01T03:46:48;93557.16;;;15.03;100.00
59367;BME280;45163;47.690;11.770;2022-08-01T03:49:21;93558.69;;;15.04;100.00
59367;BME280;45163;47.690;11.770;2022-08-01T03:51:49;93550.44;;;15.04;100.00
59367;BME280;45163;47.690;11.770;2022-08-01T03:54:21;93560.66;;;15.03;100.00
59367;BME280;45163;47.690;11.770;2022-08-01T03:56:49;93554.69;;;14.95;100.00
59367;BME280;45163;47.690;11.770;2022-08-01T03:59:18;93555.31;;;14.90;100.00
59367;BME280;45163;47.690;11.770;2022-08-01T04:01:45;93553.78;;;14.80;100.00
59367;BME280;45163;47.690;11.770;2022-08-01T04:04:12;93560.63;;;14.76;100.00
59367;BME280;45163;47.690;11.770;2022-08-01T04:06:41;93555.28;;;14.72;100.00
59367;BME280;45163;47.690;11.770;2022-08-01T04:09:11;93559.41;;;14.67;100.00
59367;BME280;45163;47.690;11.770;2022-08-01T04:11:37;93563.81;;;14.65;100.00
59367;BME280;45163;47.690;11.770;2022-08-01T04:14:03;93554.66;;;14.68;100.00
59367;BME280;45163;47.690;11.770;2022-08-01T04:16:29;93565.19;;;14.69;100.00
59367;BME280;45163;47.690;11.770;2022-08-01T04:18:55;93566.72;;;14.70;100.00
59367;BME280;45163;47.690;11.770;2022-08-01T04:21:26;93556.97;;;14.79;100.00
59367;BME280;45163;47.690;11.770;2022-08-01T04:24:01;93564.75;;;14.80;100.00
59367;BME280;45163;47.690;11.770;2022-08-01T04:26:32;93563.69;;;14.78;100.00
59367;BME280;45163;47.690;11.770;2022-08-01T04:29:01;93567.94;;;14.69;100.00
59367;BME280;45163;47.690;11.770;2022-08-01T04:31:28;93580.16;;;14.68;100.00
59367;BME280;45163;47.690;11.770;2022-08-01T04:33:56;93574.97;;;14.70;100.00
59367;BME280;45163;47.690;11.770;2022-08-01T04:36:24;93589.78;;;14.73;100.00
59367;BME280;45163;47.690;11.770;2022-08-01T04:38:57;93581.41;;;14.77;100.00
59367;BME280;45163;47.690;11.770;2022-08-01T04:41:23;93586.91;;;14.77;100.00
59367;BME280;45163;47.690;11.770;2022-08-01T04:43:51;93580.00;;;14.72;100.00
59367;BME280;45163;47.690;11.770;2022-08-01T04:46:17;93594.50;;;14.73;100.00
59367;BME280;45163;47.690;11.770;2022-08-01T04:48:45;93591.16;;;14.68;100.00
59367;BME280;45163;47.690;11.770;2022-08-01T04:51:13;93594.66;;;14.69;100.00
59367;BME280;45163;47.690;11.770;2022-08-01T04:53:41;93600.91;;;14.69;100.00
59367;BME280;45163;47.690;11.770;2022-08-01T04:56:08;93595.41;;;14.69;100.00
59367;BME280;45163;47.690;11.770;2022-08-01T04:58:34;93600.31;;;14.75;100.00
59367;BME280;45163;47.690;11.770;2022-08-01T05:01:00;93596.97;;;14.80;100.00
59367;BME280;45163;47.690;11.770;2022-08-01T05:03:26;93587.38;;;14.84;100.00
59367;BME280;45163;47.690;11.770;2022-08-01T05:05:52;93592.25;;;14.89;100.00
59367;BME280;45163;47.690;11.770;2022-08-01T05:08:18;93591.66;;;14.94;100.00
59367;BME280;45163;47.690;11.770;2022-08-01T05:10:44;93594.56;;;15.00;100.00
59367;BME280;45163;47.690;11.770;2022-08-01T05:13:10;93586.47;;;15.06;100.00
59367;BME280;45163;47.690;11.770;2022-08-01T05:15:36;93586.16;;;15.13;100.00
59367;BME280;45163;47.690;11.770;2022-08-01T05:18:03;93586.34;;;15.28;100.00
59367;BME280;45163;47.690;11.770;2022-08-01T05:20:29;93579.47;;;15.41;100.00
59367;BME280;45163;47.690;11.770;2022-08-01T05:22:55;93579.31;;;15.63;100.00
59367;BME280;45163;47.690;11.770;2022-08-01T05:25:21;93572.88;;;15.85;100.00
59367;BME280;45163;47.690;11.770;2022-08-01T05:27:47;93568.56;;;16.02;100.00
59367;BME280;45163;47.690;11.770;2022-08-01T05:30:13;93570.81;;;16.22;100.00
59367;BME280;45163;47.690;11.770;2022-08-01T05:32:39;93562.75;;;16.42;100.00
59367;BME280;45163;47.690;11.770;2022-08-01T05:35:05;93558.19;;;16.63;100.00
59367;BME280;45163;47.690;11.770;2022-08-01T05:37:31;93553.44;;;16.73;100.00
59367;BME280;45163;47.690;11.770;2022-08-01T05:39:57;93548.22;;;16.99;100.00
59367;BME280;45163;47.690;11.770;2022-08-01T05:42:23;93552.19;;;17.22;100.00
59367;BME280;45163;47.690;11.770;2022-08-01T05:44:49;93555.84;;;17.43;100.00
59367;BME280;45163;47.690;11.770;2022-08-01T05:47:16;93552.47;;;17.63;100.00
59367;BME280;45163;47.690;11.770;2022-08-01T05:49:44;93549.28;;;17.79;100.00
59367;BME280;45163;47.690;11.770;2022-08-01T05:52:11;93545.94;;;18.05;100.00
59367;BME280;45163;47.690;11.770;2022-08-01T05:54:37;93539.00;;;17.95;100.00
59367;BME280;45163;47.690;11.770;2022-08-01T05:57:03;93544.53;;;17.80;100.00
59367;BME280;45163;47.690;11.770;2022-08-01T05:59:30;93537.91;;;17.62;100.00
59367;BME280;45163;47.690;11.770;2022-08-01T06:01:56;93547.13;;;17.45;100.00
59367;BME280;45163;47.690;11.770;2022-08-01T06:04:22;93552.56;;;17.39;100.00
59367;BME280;45163;47.690;11.770;2022-08-01T06:06:48;93551.72;;;17.62;100.00
59367;BME280;45163;47.690;11.770;2022-08-01T06:09:14;93555.09;;;18.11;100.00
59367;BME280;45163;47.690;11.770;2022-08-01T06:11:40;93551.81;;;18.42;100.00
59367;BME280;45163;47.690;11.770;2022-08-01T06:14:06;93549.50;;;18.55;100.00
59367;BME280;45163;47.690;11.770;2022-08-01T06:16:32;93545.97;;;18.55;100.00
59367;BME280;45163;47.690;11.770;2022-08-01T06:18:59;93553.53;;;18.54;100.00
59367;BME280;45163;47.690;11.770;2022-08-01T06:21:25;93553.72;;;18.51;100.00
59367;BME280;45163;47.690;11.770;2022-08-01T06:23:51;93558.00;;;18.52;100.00
59367;BME280;45163;47.690;11.770;2022-08-01T06:26:18;93566.41;;;18.42;100.00
59367;BME280;45163;47.690;11.770;2022-08-01T06:28:44;93557.28;;;18.36;100.00
59367;BME280;45163;47.690;11.770;2022-08-01T06:31:09;93559.34;;;18.56;100.00
59367;BME280;45163;47.690;11.770;2022-08-01T06:33:38;93557.56;;;19.09;100.00
59367;BME280;45163;47.690;11.770;2022-08-01T06:36:04;93551.00;;;19.47;100.00
59367;BME280;45163;47.690;11.770;2022-08-01T06:38:30;93544.19;;;19.69;100.00
59367;BME280;45163;47.690;11.770;2022-08-01T06:40:56;93534.84;;;20.18;100.00
59367;BME280;45163;47.690;11.770;2022-08-01T06:43:22;93538.59;;;20.78;100.00
59367;BME280;45163;47.690;11.770;2022-08-01T06:45:49;93533.19;;;21.60;100.00
59367;BME280;45163;47.690;11.770;2022-08-01T06:48:15;93530.28;;;22.54;100.00
59367;BME280;45163;47.690;11.770;2022-08-01T06:50:41;93531.91;;;23.41;100.00
59367;BME280;45163;47.690;11.770;2022-08-01T06:53:07;93515.03;;;24.16;100.00
59367;BME280;45163;47.690;11.770;2022-08-01T06:55:33;93519.28;;;25.13;80.89
59367;BME280;45163;47.690;11.770;2022-08-01T06:57:59;93521.41;;;25.01;78.82
59367;BME280;45163;47.690;11.770;2022-08-01T07:00:26;93518.81;;;25.09;73.77
59367;BME280;45163;47.690;11.770;2022-08-01T07:02:54;93520.34;;;25.10;78.21
59367;BME280;45163;47.690;11.770;2022-08-01T07:05:21;93508.97;;;25.89;69.53
59367;BME280;45163;47.690;11.770;2022-08-01T07:07:47;93521.88;;;26.11;60.30
59367;BME280;45163;47.690;11.770;2022-08-01T07:10:13;93517.66;;;26.37;57.06
59367;BME280;45163;47.690;11.770;2022-08-01T07:12:39;93514.91;;;26.82;54.46
59367;BME280;45163;47.690;11.770;2022-08-01T07:15:08;93518.97;;;27.53;51.78
59367;BME280;45163;47.690;11.770;2022-08-01T07:17:39;93515.63;;;27.68;51.63
59367;BME280;45163;47.690;11.770;2022-08-01T07:20:10;93507.06;;;28.21;49.44
59367;BME280;45163;47.690;11.770;2022-08-01T07:22:37;93511.72;;;27.84;47.88
59367;BME280;45163;47.690;11.770;2022-08-01T07:25:05;93511.25;;;28.27;47.53
59367;BME280;45163;47.690;11.770;2022-08-01T07:27:31;93503.91;;;28.03;44.66
59367;BME280;45163;47.690;11.770;2022-08-01T07:29:57;93503.81;;;27.96;47.16
59367;BME280;45163;47.690;11.770;2022-08-01T07:32:24;93500.00;;;28.41;45.03
59367;BME280;45163;47.690;11.770;2022-08-01T07:34:50;93498.00;;;29.12;42.95
59367;BME280;45163;47.690;11.770;2022-08-01T07:37:19;93502.47;;;29.07;43.30
59367;BME280;45163;47.690;11.770;2022-08-01T07:39:45;93500.09;;;29.47;41.12
59367;BME280;45163;47.690;11.770;2022-08-01T07:42:11;93493.91;;;29.49;41.68
59367;BME280;45163;47.690;11.770;2022-08-01T07:44:37;93496.72;;;29.49;42.32
59367;BME280;45163;47.690;11.770;2022-08-01T07:47:04;93490.72;;;29.16;43.91
59367;BME280;45163;47.690;11.770;2022-08-01T07:49:30;93486.53;;;29.38;40.96
59367;BME280;45163;47.690;11.770;2022-08-01T07:51:56;93494.81;;;29.44;41.83
59367;BME280;45163;47.690;11.770;2022-08-01T07:54:22;93487.91;;;29.16;41.97
59367;BME280;45163;47.690;11.770;2022-08-01T07:56:50;93487.00;;;29.21;40.79
59367;BME280;45163;47.690;11.770;2022-08-01T07:59:16;93485.53;;;29.57;39.39
59367;BME280;45163;47.690;11.770;2022-08-01T08:01:42;93484.94;;;29.94;39.55
59367;BME280;45163;47.690;11.770;2022-08-01T08:04:08;93484.09;;;29.71;40.48
59367;BME280;45163;47.690;11.770;2022-08-01T08:06:34;93486.97;;;29.50;41.16
59367;BME280;45163;47.690;11.770;2022-08-01T08:09:00;93486.88;;;29.63;40.85
59367;BME280;45163;47.690;11.770;2022-08-01T08:11:25;93488.09;;;29.54;39.88
59367;BME280;45163;47.690;11.770;2022-08-01T08:13:51;93487.63;;;29.64;38.54
59367;BME280;45163;47.690;11.770;2022-08-01T08:16:17;93483.69;;;30.11;39.07
59367;BME280;45163;47.690;11.770;2022-08-01T08:18:43;93491.28;;;30.54;36.95
59367;BME280;45163;47.690;11.770;2022-08-01T08:21:09;93486.09;;;30.73;36.54
59367;BME280;45163;47.690;11.770;2022-08-01T08:23:35;93488.28;;;30.44;38.40
59367;BME280;45163;47.690;11.770;2022-08-01T08:26:20;93486.63;;;30.80;37.71
59367;BME280;45163;47.690;11.770;2022-08-01T08:28:46;93484.34;;;30.70;36.48
59367;BME280;45163;47.690;11.770;2022-08-01T08:31:12;93472.53;;;31.10;35.93
59367;BME280;45163;47.690;11.770;2022-08-01T08:33:38;93490.38;;;31.28;36.09
59367;BME280;45163;47.690;11.770;2022-08-01T08:36:04;93483.44;;;31.06;34.17
59367;BME280;45163;47.690;11.770;2022-08-01T08:38:30;93485.41;;;31.59;35.83
59367;BME280;45163;47.690;11.770;2022-08-01T08:40:56;93488.56;;;31.86;34.42
59367;BME280;45163;47.690;11.770;2022-08-01T08:43:24;93492.59;;;31.53;35.00
59367;BME280;45163;47.690;11.770;2022-08-01T08:45:53;93489.59;;;32.06;34.28
59367;BME280;45163;47.690;11.770;2022-08-01T08:48:20;93492.66;;;31.30;35.95
59367;BME280;45163;47.690;11.770;2022-08-01T08:50:48;93493.34;;;31.61;35.31
59367;BME280;45163;47.690;11.770;2022-08-01T08:53:15;93496.13;;;31.68;35.66
59367;BME280;45163;47.690;11.770;2022-08-01T08:55:42;93490.25;;;31.82;35.56
59367;BME280;45163;47.690;11.770;2022-08-01T08:58:13;93480.66;;;31.85;33.86
59367;BME280;45163;47.690;11.770;2022-08-01T09:00:39;93485.19;;;32.61;33.71
59367;BME280;45163;47.690;11.770;2022-08-01T09:03:05;93477.25;;;32.59;32.75
59367;BME280;45163;47.690;11.770;2022-08-01T09:05:31;93488.34;;;32.65;31.61
59367;BME280;45163;47.690;11.770;2022-08-01T09:07:57;93494.53;;;32.71;32.62
59367;BME280;45163;47.690;11.770;2022-08-01T09:10:25;93486.69;;;32.21;34.21
59367;BME280;45163;47.690;11.770;2022-08-01T09:13:07;93485.84;;;32.04;33.31
59367;BME280;45163;47.690;11.770;2022-08-01T09:15:47;93482.53;;;33.30;32.84
59367;BME280;45163;47.690;11.770;2022-08-01T09:24:00;93479.44;;;32.43;32.24
59367;BME280;45163;47.690;11.770;2022-08-01T09:26:33;93485.06;;;32.76;31.64
59367;BME280;45163;47.690;11.770;2022-08-01T09:29:02;93478.09;;;33.97;29.73
59367;BME280;45163;47.690;11.770;2022-08-01T09:31:39;93481.25;;;34.01;29.05
59367;BME280;45163;47.690;11.770;2022-08-01T09:34:06;93489.16;;;33.67;29.38
59367;BME280;45163;47.690;11.770;2022-08-01T09:36:54;93483.78;;;32.44;31.11
59367;BME280;45163;47.690;11.770;2022-08-01T09:39:32;93482.34;;;31.80;32.01
59367;BME280;45163;47.690;11.770;2022-08-01T09:42:02;93484.16;;;32.99;31.09
59367;BME280;45163;47.690;11.770;2022-08-01T09:44:44;93477.94;;;33.60;30.21
59367;BME280;45163;47.690;11.770;2022-08-01T09:47:11;93476.09;;;33.72;30.17
59367;BME280;45163;47.690;11.770;2022-08-01T09:49:40;93478.84;;;33.62;31.94
59367;BME280;45163;47.690;11.770;2022-08-01T09:52:26;93469.41;;;34.39;29.16
59367;BME280;45163;47.690;11.770;2022-08-01T09:57:22;93466.41;;;33.40;30.57
59367;BME280;45163;47.690;11.770;2022-08-01T09:59:51;93469.94;;;34.01;30.67
59367;BME280;45163;47.690;11.770;2022-08-01T10:02:35;93464.91;;;33.91;29.89
59367;BME280;45163;47.690;11.770;2022-08-01T10:05:07;93464.47;;;32.26;32.24
59367;BME280;45163;47.690;11.770;2022-08-01T10:07:34;93456.00;;;30.68;34.82
59367;BME280;45163;47.690;11.770;2022-08-01T10:12:37;93453.66;;;31.43;35.18
59367;BME280;45163;47.690;11.770;2022-08-01T10:15:04;93456.34;;;31.89;34.15
59367;BME280;45163;47.690;11.770;2022-08-01T10:17:31;93461.22;;;32.87;31.48
59367;BME280;45163;47.690;11.770;2022-08-01T10:20:01;93453.88;;;31.93;32.46
59367;BME280;45163;47.690;11.770;2022-08-01T10:22:30;93450.41;;;32.10;32.62
59367;BME280;45163;47.690;11.770;2022-08-01T10:24:56;93450.44;;;31.55;32.03
59367;BME280;45163;47.690;11.770;2022-08-01T10:27:24;93456.56;;;31.84;33.28
59367;BME280;45163;47.690;11.770;2022-08-01T10:30:01;93449.03;;;31.08;34.44
59367;BME280;45163;47.690;11.770;2022-08-01T10:32:32;93440.97;;;29.76;35.67
59367;BME280;45163;47.690;11.770;2022-08-01T10:34:59;93438.72;;;30.95;35.43
59367;BME280;45163;47.690;11.770;2022-08-01T10:37:26;93447.09;;;31.96;31.29
59367;BME280;45163;47.690;11.770;2022-08-01T10:39:53;93440.72;;;33.46;29.28
59367;BME280;45163;47.690;11.770;2022-08-01T10:42:19;93436.19;;;31.45;31.76
59367;BME280;45163;47.690;11.770;2022-08-01T10:44:46;93437.78;;;31.71;31.57
59367;BME280;45163;47.690;11.770;2022-08-01T10:47:20;93434.22;;;31.70;31.90
59367;BME280;45163;47.690;11.770;2022-08-01T10:49:51;93438.09;;;31.27;34.42
59367;BME280;45163;47.690;11.770;2022-08-01T10:52:20;93427.81;;;31.07;35.73
59367;BME280;45163;47.690;11.770;2022-08-01T10:54:46;93441.31;;;31.79;34.51
59367;BME280;45163;47.690;11.770;2022-08-01T10:57:13;93432.09;;;33.02;31.72
59367;BME280;45163;47.690;11.770;2022-08-01T10:59:50;93426.78;;;33.23;31.18
59367;BME280;45163;47.690;11.770;2022-08-01T11:02:37;93428.81;;;33.47;31.26
59367;BME280;45163;47.690;11.770;2022-08-01T11:05:12;93427.91;;;33.45;30.95
59367;BME280;45163;47.690;11.770;2022-08-01T11:07:48;93421.06;;;34.10;30.07
59367;BME280;45163;47.690;11.770;2022-08-01T11:13:06;93425.94;;;34.00;28.28
59367;BME280;45163;47.690;11.770;2022-08-01T11:15:40;93414.81;;;35.22;28.65
59367;BME280;45163;47.690;11.770;2022-08-01T11:20:57;93414.53;;;35.85;27.64
59367;BME280;45163;47.690;11.770;2022-08-01T11:23:24;93413.94;;;36.67;26.46
59367;BME280;45163;47.690;11.770;2022-08-01T11:28:19;93411.09;;;35.29;28.18
59367;BME280;45163;47.690;11.770;2022-08-01T11:30:52;93410.22;;;35.65;27.05
59367;BME280;45163;47.690;11.770;2022-08-01T11:39:24;93401.16;;;34.91;26.53
59367;BME280;45163;47.690;11.770;2022-08-01T11:41:33;93402.28;;;35.25;26.88
59367;BME280;45163;47.690;11.770;2022-08-01T11:46:50;93406.75;;;35.18;26.92
59367;BME280;45163;47.690;11.770;2022-08-01T11:52:24;93393.03;;;35.34;27.15
59367;BME280;45163;47.690;11.770;2022-08-01T11:57:24;93392.75;;;36.48;24.62
59367;BME280;45163;47.690;11.770;2022-08-01T11:59:52;93386.00;;;35.35;25.66
59367;BME280;45163;47.690;11.770;2022-08-01T12:02:25;93383.31;;;34.61;26.67
59367;BME280;45163;47.690;11.770;2022-08-01T12:04:59;93387.66;;;33.64;28.80
59367;BME280;45163;47.690;11.770;2022-08-01T12:07:28;93387.00;;;33.04;29.50
59367;BME280;45163;47.690;11.770;2022-08-01T12:09:58;93390.84;;;32.73;29.88
59367;BME280;45163;47.690;11.770;2022-08-01T12:12:27;93379.72;;;34.24;27.76
59367;BME280;45163;47.690;11.770;2022-08-01T12:14:55;93385.97;;;34.59;27.62
59367;BME280;45163;47.690;11.770;2022-08-01T12:17:38;93389.81;;;34.91;27.15
59367;BME280;45163;47.690;11.770;2022-08-01T12:20:07;93387.06;;;34.10;27.31
59367;BME280;45163;47.690;11.770;2022-08-01T12:22:34;93383.72;;;34.21;27.26
59367;BME280;45163;47.690;11.770;2022-08-01T12:25:17;93379.53;;;34.49;26.51
59367;BME280;45163;47.690;11.770;2022-08-01T12:27:44;93376.56;;;35.13;25.43
59367;BME280;45163;47.690;11.770;2022-08-01T12:30:19;93373.31;;;35.55;25.56
59367;BME280;45163;47.690;11.770;2022-08-01T12:32:46;93380.78;;;35.60;25.11
59367;BME280;45163;47.690;11.770;2022-08-01T12:35:18;93381.03;;;35.93;24.26
59367;BME280;45163;47.690;11.770;2022-08-01T12:37:48;93376.53;;;36.60;23.20
59367;BME280;45163;47.690;11.770;2022-08-01T12:40:19;93370.88;;;36.00;24.16
59367;BME280;45163;47.690;11.770;2022-08-01T12:42:51;93365.19;;;36.41;23.60
59367;BME280;45163;47.690;11.770;2022-08-01T12:45:20;93370.34;;;37.81;21.93
59367;BME280;45163;47.690;11.770;2022-08-01T12:47:47;93367.59;;;37.28;21.93
59367;BME280;45163;47.690;11.770;2022-08-01T12:50:19;93376.13;;;35.16;23.88
59367;BME280;45163;47.690;11.770;2022-08-01T12:52:47;93371.91;;;32.41;26.78
59367;BME280;45163;47.690;11.770;2022-08-01T12:55:18;93364.94;;;31.77;29.28
59367;BME280;45163;47.690;11.770;2022-08-01T12:57:48;93361.63;;;32.29;27.83
59367;BME280;45163;47.690;11.770;2022-08-01T13:00:21;93375.22;;;32.47;28.84
59367;BME280;45163;47.690;11.770;2022-08-01T13:02:50;93367.56;;;31.35;30.82
59367;BME280;45163;47.690;11.770;2022-08-01T13:05:25;93369.84;;;31.36;30.58
59367;BME280;45163;47.690;11.770;2022-08-01T13:07:51;93358.13;;;33.05;28.72
59367;BME280;45163;47.690;11.770;2022-08-01T13:10:28;93364.84;;;32.50;28.07
59367;BME280;45163;47.690;11.770;2022-08-01T13:12:57;93362.69;;;32.08;28.73
59367;BME280;45163;47.690;11.770;2022-08-01T13:15:27;93365.47;;;31.83;28.87
59367;BME280;45163;47.690;11.770;2022-08-01T13:17:56;93361.22;;;32.57;27.97
59367;BME280;45163;47.690;11.770;2022-08-01T13:20:31;93358.50;;;32.17;27.99
59367;BME280;45163;47.690;11.770;2022-08-01T13:23:16;93358.91;;;31.40;29.50
59367;BME280;45163;47.690;11.770;2022-08-01T13:26:08;93360.38;;;30.78;30.35
59367;BME280;45163;47.690;11.770;2022-08-01T13:28:34;93357.63;;;31.34;29.67
59367;BME280;45163;47.690;11.770;2022-08-01T13:31:06;93351.34;;;31.83;28.52
59367;BME280;45163;47.690;11.770;2022-08-01T13:33:48;93361.00;;;31.40;28.96